Meloria — IBXK — position and weather

sailwx.info

Track history (hours):
 
Tides and Currents Weather Stations Pressure Air Temp Water Temp Dewpoint Dewpoint Depression Visibility Wind Speed Wind Dir Waves Ship Positions

Meloria

Last reported at 2014-Sep-03 01:30 UTC. Time now 2014-Sep-03 02:13 UTC.
Position N 43°25' E 004°53'.

Length 176 m; draft 9.4 m.

Type: Tanker. MMSI: 247171100.

Date/timePositionNaut miles runAvg speedWind from/ knotsBaromVisibWave heightAir tempDewpointWater temp
2014-Sep-03 01:30N 43°25' E 004°53'0 0.0
2014-Sep-03 00:30N 43°25' E 004°53'0 0.0
2014-Sep-02 23:30N 43°25' E 004°53'0 0.0
2014-Sep-02 22:33N 43°25' E 004°53'0 0.0
2014-Sep-02 21:30N 43°25' E 004°53'0 0.0
2014-Sep-02 20:33N 43°25' E 004°53'0 0.0
2014-Sep-02 19:30N 43°25' E 004°53'0 0.0
2014-Sep-02 18:32N 43°25' E 004°53'0 0.0
2014-Sep-02 17:29N 43°25' E 004°53'0 0.0
2014-Sep-02 16:29N 43°25' E 004°53'0 0.0
2014-Sep-02 15:29N 43°25' E 004°53'0 0.0
2014-Sep-02 14:32N 43°25' E 004°53'0 0.0
2014-Sep-02 13:29N 43°25' E 004°53'0 0.0
2014-Sep-02 12:17N 43°25' E 004°53'0 0.0
2014-Sep-02 11:29N 43°25' E 004°53'0 0.0
2014-Sep-02 10:32N 43°25' E 004°53'0 0.0
2014-Sep-02 09:29N 43°25' E 004°53'0 0.0
2014-Sep-02 08:29N 43°25' E 004°53'0 0.0
2014-Sep-02 07:32N 43°25' E 004°53'0 0.0
2014-Sep-02 06:32N 43°25' E 004°53'0 0.0
2014-Sep-02 05:29N 43°25' E 004°53'0 0.0
2014-Sep-02 04:23N 43°25' E 004°53'0 0.0
2014-Sep-02 03:32N 43°25' E 004°53'0 0.0
2014-Sep-02 02:32N 43°25' E 004°53'0 0.0
2014-Sep-02 01:29N 43°25' E 004°53'0 0.0
2014-Sep-02 00:29N 43°25' E 004°53'0 0.0
2014-Sep-01 23:29N 43°25' E 004°53'0 0.0
2014-Sep-01 22:29N 43°25' E 004°53'0 0.0
2014-Sep-01 21:29N 43°25' E 004°53'0 0.0
2014-Sep-01 20:23N 43°25' E 004°53'0 0.0
2014-Sep-01 19:29N 43°25' E 004°53'0 0.0
2014-Sep-01 18:32N 43°25' E 004°53'0 0.0
2014-Sep-01 17:29N 43°25' E 004°53'0 0.0
2014-Sep-01 16:29N 43°25' E 004°53'0 0.0
2014-Sep-01 15:29N 43°25' E 004°53'0 0.0
2014-Sep-01 14:32N 43°25' E 004°53'0 0.1
2014-Sep-01 13:33N 43°25' E 004°54'3 2.5
2014-Sep-01 12:30N 43°24' E 004°57'0 0.0
2014-Sep-01 11:33N 43°24' E 004°57'0 0.0
2014-Sep-01 10:33N 43°24' E 004°57'0 0.1
2014-Sep-01 09:33N 43°24' E 004°57'0 0.0
2014-Sep-01 08:33N 43°24' E 004°57'0 0.0
2014-Sep-01 07:33N 43°24' E 004°57'0 0.1
2014-Sep-01 06:33N 43°24' E 004°57'0 0.0
2014-Sep-01 05:33N 43°24' E 004°57'0 0.0
2014-Sep-01 04:33N 43°24' E 004°57'0 0.0
2014-Sep-01 03:33N 43°24' E 004°57'0 0.0
2014-Sep-01 02:33N 43°24' E 004°57'0 0.0
2014-Sep-01 01:33N 43°24' E 004°57'0 0.0
2014-Sep-01 00:33N 43°24' E 004°57'0 0.0
2014-Aug-31 23:33N 43°24' E 004°57'0 0.0
2014-Aug-31 22:33N 43°24' E 004°57'0 0.0
2014-Aug-31 21:32N 43°24' E 004°57'3 3.0
2014-Aug-31 20:33N 43°21' E 004°59'10 9.8
2014-Aug-31 19:34N 43°12' E 005°03'1412.7
2014-Aug-31 18:29N 42°60' E 005°12'1211.1
2014-Aug-31 17:24N 42°50' E 005°20'1111.4
2014-Aug-31 16:28N 42°40' E 005°28'1211.1
2014-Aug-31 15:23N 42°30' E 005°36'1011.1
2014-Aug-31 14:29N 42°21' E 005°42'1211.3
2014-Aug-31 13:27N 42°11' E 005°50'4611.2
2014-Aug-31 09:23N 41°31' E 006°19'19212.1
2014-Aug-30 17:34N 38°45' E 008°26'1312.9
2014-Aug-30 16:33N 38°41' E 008°42'1312.8
2014-Aug-30 15:33N 38°37' E 008°57'1312.7
2014-Aug-30 14:34N 38°33' E 009°12'1312.8
2014-Aug-30 13:32N 38°29' E 009°28'1212.5
2014-Aug-30 12:33N 38°25' E 009°43'1212.4
2014-Aug-30 11:32N 38°21' E 009°58'20312.0
2014-Aug-29 18:33N 36°56' E 013°52'1212.4
2014-Aug-29 17:33N 36°51' E 014°06'1211.9
2014-Aug-29 16:33N 36°45' E 014°19'1211.9
2014-Aug-29 15:34N 36°40' E 014°32'1212.2
2014-Aug-29 14:34N 36°37' E 014°47'  
2014-Aug-25 12:28N 36°17' E 014°56'1112.1
2014-Aug-25 11:33N 36°08' E 014°49'1312.2
2014-Aug-25 10:30N 35°57' E 014°40'8 3.8
2014-Aug-25 08:24N 35°50' E 014°36'0 0.0
2014-Aug-25 07:33N 35°50' E 014°36'0 0.0
2014-Aug-25 06:29N 35°50' E 014°36'0 0.0
2014-Aug-25 05:32N 35°50' E 014°36'2 1.7
2014-Aug-25 04:33N 35°51' E 014°37'1212.0
2014-Aug-25 03:33N 36°03' E 014°32'1312.7
2014-Aug-25 02:33N 36°13' E 014°23'2812.8
2014-Aug-25 00:20N 36°23' E 013°50'1013.1
2014-Aug-24 23:33N 36°26' E 013°38'1313.3
2014-Aug-24 22:33N 36°31' E 013°22'1313.5
2014-Aug-24 21:33N 36°36' E 013°06'1613.3
2014-Aug-24 20:20N 36°42' E 012°48'1012.9
2014-Aug-24 19:33N 36°46' E 012°36'1312.7
2014-Aug-24 18:33N 36°51' E 012°22'1313.0
2014-Aug-24 17:33N 36°56' E 012°07'1413.0
2014-Aug-24 16:30N 37°03' E 011°52'1212.8
2014-Aug-24 15:33N 37°09' E 011°39'1312.7
2014-Aug-24 14:33N 37°15' E 011°25'1212.5
2014-Aug-24 13:33N 37°21' E 011°11'1312.6
2014-Aug-24 12:33N 37°25' E 010°56'1313.1
2014-Aug-24 11:33N 37°28' E 010°40'1313.1
2014-Aug-24 10:33N 37°31' E 010°24'1312.8
2014-Aug-24 09:33N 37°33' E 010°08'1313.0
2014-Aug-24 08:33N 37°32' E 009°52'1413.1
2014-Aug-24 07:28N 37°27' E 009°34'1212.7
2014-Aug-24 06:33N 37°23' E 009°21'1412.8
2014-Aug-24 05:25N 37°19' E 009°04'  
Track history (hours):
 
Tides and Currents Weather Stations Pressure Air Temp Water Temp Dewpoint Dewpoint Depression Visibility Wind Speed Wind Dir Waves Ship Positions

Meloria

Last reported at 2014-Sep-03 01:30 UTC. Time now 2014-Sep-03 02:13 UTC.
Position N 43°25' E 004°53'.

Length 176 m; draft 9.4 m.

Type: Tanker. MMSI: 247171100.

Date/timePositionNaut miles runAvg speedWind from/ knotsBaromVisibWave heightAir tempDewpointWater temp
2014-Sep-03 01:30N 43°25' E 004°53'0 0.0
2014-Sep-03 00:30N 43°25' E 004°53'0 0.0
2014-Sep-02 23:30N 43°25' E 004°53'0 0.0
2014-Sep-02 22:33N 43°25' E 004°53'0 0.0
2014-Sep-02 21:30N 43°25' E 004°53'0 0.0
2014-Sep-02 20:33N 43°25' E 004°53'0 0.0
2014-Sep-02 19:30N 43°25' E 004°53'0 0.0
2014-Sep-02 18:32N 43°25' E 004°53'0 0.0
2014-Sep-02 17:29N 43°25' E 004°53'0 0.0
2014-Sep-02 16:29N 43°25' E 004°53'0 0.0
2014-Sep-02 15:29N 43°25' E 004°53'0 0.0
2014-Sep-02 14:32N 43°25' E 004°53'0 0.0
2014-Sep-02 13:29N 43°25' E 004°53'0 0.0
2014-Sep-02 12:17N 43°25' E 004°53'0 0.0
2014-Sep-02 11:29N 43°25' E 004°53'0 0.0
2014-Sep-02 10:32N 43°25' E 004°53'0 0.0
2014-Sep-02 09:29N 43°25' E 004°53'0 0.0
2014-Sep-02 08:29N 43°25' E 004°53'0 0.0
2014-Sep-02 07:32N 43°25' E 004°53'0 0.0
2014-Sep-02 06:32N 43°25' E 004°53'0 0.0
2014-Sep-02 05:29N 43°25' E 004°53'0 0.0
2014-Sep-02 04:23N 43°25' E 004°53'0 0.0
2014-Sep-02 03:32N 43°25' E 004°53'0 0.0
2014-Sep-02 02:32N 43°25' E 004°53'0 0.0
2014-Sep-02 01:29N 43°25' E 004°53'0 0.0
2014-Sep-02 00:29N 43°25' E 004°53'0 0.0
2014-Sep-01 23:29N 43°25' E 004°53'0 0.0
2014-Sep-01 22:29N 43°25' E 004°53'0 0.0
2014-Sep-01 21:29N 43°25' E 004°53'0 0.0
2014-Sep-01 20:23N 43°25' E 004°53'0 0.0
2014-Sep-01 19:29N 43°25' E 004°53'0 0.0
2014-Sep-01 18:32N 43°25' E 004°53'0 0.0
2014-Sep-01 17:29N 43°25' E 004°53'0 0.0
2014-Sep-01 16:29N 43°25' E 004°53'0 0.0
2014-Sep-01 15:29N 43°25' E 004°53'0 0.0
2014-Sep-01 14:32N 43°25' E 004°53'0 0.1
2014-Sep-01 13:33N 43°25' E 004°54'3 2.5
2014-Sep-01 12:30N 43°24' E 004°57'0 0.0
2014-Sep-01 11:33N 43°24' E 004°57'0 0.0
2014-Sep-01 10:33N 43°24' E 004°57'0 0.1
2014-Sep-01 09:33N 43°24' E 004°57'0 0.0
2014-Sep-01 08:33N 43°24' E 004°57'0 0.0
2014-Sep-01 07:33N 43°24' E 004°57'0 0.1
2014-Sep-01 06:33N 43°24' E 004°57'0 0.0
2014-Sep-01 05:33N 43°24' E 004°57'0 0.0
2014-Sep-01 04:33N 43°24' E 004°57'0 0.0
2014-Sep-01 03:33N 43°24' E 004°57'0 0.0
2014-Sep-01 02:33N 43°24' E 004°57'0 0.0
2014-Sep-01 01:33N 43°24' E 004°57'0 0.0
2014-Sep-01 00:33N 43°24' E 004°57'0 0.0
2014-Aug-31 23:33N 43°24' E 004°57'0 0.0
2014-Aug-31 22:33N 43°24' E 004°57'0 0.0
2014-Aug-31 21:32N 43°24' E 004°57'3 3.0
2014-Aug-31 20:33N 43°21' E 004°59'10 9.8
2014-Aug-31 19:34N 43°12' E 005°03'1412.7
2014-Aug-31 18:29N 42°60' E 005°12'1211.1
2014-Aug-31 17:24N 42°50' E 005°20'1111.4
2014-Aug-31 16:28N 42°40' E 005°28'1211.1
2014-Aug-31 15:23N 42°30' E 005°36'1011.1
2014-Aug-31 14:29N 42°21' E 005°42'1211.3
2014-Aug-31 13:27N 42°11' E 005°50'4611.2
2014-Aug-31 09:23N 41°31' E 006°19'19212.1
2014-Aug-30 17:34N 38°45' E 008°26'1312.9
2014-Aug-30 16:33N 38°41' E 008°42'1312.8
2014-Aug-30 15:33N 38°37' E 008°57'1312.7
2014-Aug-30 14:34N 38°33' E 009°12'1312.8
2014-Aug-30 13:32N 38°29' E 009°28'1212.5
2014-Aug-30 12:33N 38°25' E 009°43'1212.4
2014-Aug-30 11:32N 38°21' E 009°58'20312.0
2014-Aug-29 18:33N 36°56' E 013°52'1212.4
2014-Aug-29 17:33N 36°51' E 014°06'1211.9
2014-Aug-29 16:33N 36°45' E 014°19'1211.9
2014-Aug-29 15:34N 36°40' E 014°32'1212.2
2014-Aug-29 14:34N 36°37' E 014°47'  
2014-Aug-25 12:28N 36°17' E 014°56'1112.1
2014-Aug-25 11:33N 36°08' E 014°49'1312.2
2014-Aug-25 10:30N 35°57' E 014°40'8 3.8
2014-Aug-25 08:24N 35°50' E 014°36'0 0.0
2014-Aug-25 07:33N 35°50' E 014°36'0 0.0
2014-Aug-25 06:29N 35°50' E 014°36'0 0.0
2014-Aug-25 05:32N 35°50' E 014°36'2 1.7
2014-Aug-25 04:33N 35°51' E 014°37'1212.0
2014-Aug-25 03:33N 36°03' E 014°32'1312.7
2014-Aug-25 02:33N 36°13' E 014°23'2812.8
2014-Aug-25 00:20N 36°23' E 013°50'1013.1
2014-Aug-24 23:33N 36°26' E 013°38'1313.3
2014-Aug-24 22:33N 36°31' E 013°22'1313.5
2014-Aug-24 21:33N 36°36' E 013°06'1613.3
2014-Aug-24 20:20N 36°42' E 012°48'1012.9
2014-Aug-24 19:33N 36°46' E 012°36'1312.7
2014-Aug-24 18:33N 36°51' E 012°22'1313.0
2014-Aug-24 17:33N 36°56' E 012°07'1413.0
2014-Aug-24 16:30N 37°03' E 011°52'1212.8
2014-Aug-24 15:33N 37°09' E 011°39'1312.7
2014-Aug-24 14:33N 37°15' E 011°25'1212.5
2014-Aug-24 13:33N 37°21' E 011°11'1312.6
2014-Aug-24 12:33N 37°25' E 010°56'1313.1
2014-Aug-24 11:33N 37°28' E 010°40'1313.1
2014-Aug-24 10:33N 37°31' E 010°24'1312.8
2014-Aug-24 09:33N 37°33' E 010°08'1313.0
2014-Aug-24 08:33N 37°32' E 009°52'1413.1
2014-Aug-24 07:28N 37°27' E 009°34'1212.7
2014-Aug-24 06:33N 37°23' E 009°21'1412.8
2014-Aug-24 05:25N 37°19' E 009°04'  

Dump ship's entire track history